createdAt,value
2023-05-10T00:00:24.165Z,961.80
2023-05-10T00:01:23.970Z,961.76
2023-05-10T00:02:24.342Z,961.79
2023-05-10T00:03:24.007Z,961.78
2023-05-10T00:04:24.227Z,961.75
2023-05-10T00:05:24.089Z,961.71
2023-05-10T00:06:23.913Z,961.74
2023-05-10T00:07:24.089Z,961.73
2023-05-10T00:08:23.917Z,961.74
2023-05-10T00:09:24.006Z,961.67
2023-05-10T00:10:23.860Z,961.72
2023-05-10T00:11:23.938Z,961.73
2023-05-10T00:12:23.870Z,961.76
2023-05-10T00:13:24.145Z,961.70
2023-05-10T00:14:23.806Z,961.71
2023-05-10T00:15:23.944Z,961.70
2023-05-10T00:16:23.782Z,961.71
2023-05-10T00:17:23.911Z,961.74
2023-05-10T00:18:23.762Z,961.69
2023-05-10T00:19:23.933Z,961.71
2023-05-10T00:20:23.753Z,961.66
2023-05-10T00:21:23.900Z,961.72
2023-05-10T00:22:23.717Z,961.72
2023-05-10T00:23:23.831Z,961.76
2023-05-10T00:24:23.698Z,961.79
2023-05-10T00:25:23.864Z,961.81
2023-05-10T00:26:23.672Z,961.83
2023-05-10T00:27:23.862Z,961.84
2023-05-10T00:28:23.632Z,961.81
2023-05-10T00:29:23.745Z,961.81
2023-05-10T00:30:23.641Z,961.83
2023-05-10T00:31:23.793Z,961.86
2023-05-10T00:32:23.653Z,961.86
2023-05-10T00:33:23.775Z,961.83
2023-05-10T00:34:23.600Z,961.85
2023-05-10T00:35:23.702Z,961.84
2023-05-10T00:36:23.754Z,961.83
2023-05-10T00:37:23.541Z,961.79
2023-05-10T00:38:23.733Z,961.79
2023-05-10T00:39:23.491Z,961.85
2023-05-10T00:40:23.793Z,961.87
2023-05-10T00:41:23.746Z,961.91
2023-05-10T00:42:23.488Z,961.91
2023-05-10T00:43:23.540Z,961.93
2023-05-10T00:44:23.429Z,961.91
2023-05-10T00:45:23.569Z,962.00
2023-05-10T00:46:23.481Z,961.93
2023-05-10T00:47:23.607Z,961.97
2023-05-10T00:48:23.388Z,961.95
2023-05-10T00:49:23.470Z,961.97
2023-05-10T00:50:23.362Z,961.95
2023-05-10T00:51:23.541Z,961.98
2023-05-10T00:52:23.354Z,962.01
2023-05-10T00:53:23.409Z,962.04
2023-05-10T00:54:23.310Z,962.05
2023-05-10T00:55:23.419Z,962.04
2023-05-10T00:56:23.277Z,962.10
2023-05-10T00:57:23.489Z,962.05
2023-05-10T00:58:23.387Z,962.12
2023-05-10T00:59:23.445Z,962.09
2023-05-10T01:00:23.261Z,962.10
2023-05-10T01:01:23.526Z,962.09
2023-05-10T01:02:23.500Z,962.10
2023-05-10T01:03:23.228Z,962.12
2023-05-10T01:04:23.394Z,962.09
2023-05-10T01:05:23.244Z,962.08
2023-05-10T01:06:23.424Z,962.12
2023-05-10T01:07:23.300Z,962.13
2023-05-10T01:08:23.203Z,962.14
2023-05-10T01:09:23.293Z,962.16
2023-05-10T01:10:23.118Z,962.17
2023-05-10T01:11:23.223Z,962.19
2023-05-10T01:12:23.376Z,962.18
2023-05-10T01:13:23.162Z,962.18
2023-05-10T01:14:23.261Z,962.16
2023-05-10T01:15:23.037Z,962.20
2023-05-10T01:16:23.087Z,962.17
2023-05-10T01:17:23.029Z,962.19
2023-05-10T01:18:23.286Z,962.22
2023-05-10T01:19:23.007Z,962.22
2023-05-10T01:20:23.165Z,962.25
2023-05-10T01:21:22.932Z,962.25
2023-05-10T01:22:23.111Z,962.26
2023-05-10T01:23:22.940Z,962.26
2023-05-10T01:24:23.123Z,962.24
2023-05-10T01:25:22.909Z,962.27
2023-05-10T01:26:23.108Z,962.26
2023-05-10T01:27:22.948Z,962.22
2023-05-10T01:28:23.148Z,962.25
2023-05-10T01:29:22.857Z,962.28
2023-05-10T01:30:23.014Z,962.30
2023-05-10T01:31:22.883Z,962.31
2023-05-10T01:32:23.065Z,962.31
2023-05-10T01:33:22.801Z,962.37
2023-05-10T01:34:22.987Z,962.34
2023-05-10T01:35:22.777Z,962.35
2023-05-10T01:36:22.843Z,962.34
2023-05-10T01:37:22.735Z,962.35
2023-05-10T01:38:22.918Z,962.38
2023-05-10T01:39:22.718Z,962.39
2023-05-10T01:40:22.828Z,962.41
2023-05-10T01:41:22.710Z,962.44
2023-05-10T01:42:22.738Z,962.44
2023-05-10T01:43:22.747Z,962.43
2023-05-10T01:44:22.680Z,962.48
2023-05-10T01:45:22.736Z,962.48
2023-05-10T01:46:22.717Z,962.52
2023-05-10T01:47:22.706Z,962.48
2023-05-10T01:48:22.681Z,962.52
2023-05-10T01:49:22.595Z,962.54
2023-05-10T01:50:22.808Z,962.50
2023-05-10T01:51:22.567Z,962.52
2023-05-10T01:52:22.664Z,962.55
2023-05-10T01:53:22.594Z,962.56
2023-05-10T01:54:22.554Z,962.53
2023-05-10T01:55:22.615Z,962.53
2023-05-10T01:56:22.513Z,962.55
2023-05-10T01:57:22.848Z,962.59
2023-05-10T01:58:22.526Z,962.57
2023-05-10T01:59:22.539Z,962.56
2023-05-10T02:00:22.483Z,962.58
2023-05-10T02:01:22.813Z,962.58
2023-05-10T02:02:22.447Z,962.60
2023-05-10T02:03:22.683Z,962.59
2023-05-10T02:04:22.454Z,962.59
2023-05-10T02:05:22.584Z,962.61
2023-05-10T02:06:22.457Z,962.62
2023-05-10T02:07:22.483Z,962.58
2023-05-10T02:08:22.363Z,962.59
2023-05-10T02:09:22.434Z,962.61
2023-05-10T02:10:22.342Z,962.62
2023-05-10T02:11:22.423Z,962.63
2023-05-10T02:12:22.328Z,962.64
2023-05-10T02:13:22.518Z,962.69
2023-05-10T02:14:22.296Z,962.68
2023-05-10T02:15:22.445Z,962.70
2023-05-10T02:16:22.337Z,962.69
2023-05-10T02:17:22.467Z,962.70
2023-05-10T02:18:22.252Z,962.72
2023-05-10T02:19:22.303Z,962.71
2023-05-10T02:20:22.217Z,962.73
2023-05-10T02:21:22.369Z,962.76
2023-05-10T02:22:22.198Z,962.74
2023-05-10T02:23:22.193Z,962.74
2023-05-10T02:24:22.371Z,962.77
2023-05-10T02:25:22.153Z,962.74
2023-05-10T02:26:22.215Z,962.80
2023-05-10T02:27:22.132Z,962.80
2023-05-10T02:28:22.351Z,962.80
2023-05-10T02:29:22.223Z,962.79
2023-05-10T02:30:22.142Z,962.79
2023-05-10T02:31:22.301Z,962.80
2023-05-10T02:32:22.080Z,962.82
2023-05-10T02:33:22.152Z,962.84
2023-05-10T02:34:22.038Z,962.88
2023-05-10T02:35:22.014Z,962.86
2023-05-10T02:36:22.251Z,962.88
2023-05-10T02:37:21.983Z,962.81
2023-05-10T02:38:22.070Z,962.80
2023-05-10T02:39:21.991Z,962.81
2023-05-10T02:40:22.116Z,962.81
2023-05-10T02:41:21.942Z,962.82
2023-05-10T02:42:22.030Z,962.80
2023-05-10T02:43:21.934Z,962.82
2023-05-10T02:44:22.039Z,962.84
2023-05-10T02:45:21.885Z,962.81
2023-05-10T02:46:21.994Z,962.83
2023-05-10T02:47:21.901Z,962.78
2023-05-10T02:48:21.977Z,962.80
2023-05-10T02:49:21.819Z,962.81
2023-05-10T02:50:22.008Z,962.77
2023-05-10T02:51:21.800Z,962.78
2023-05-10T02:52:22.034Z,962.76
2023-05-10T02:53:21.814Z,962.76
2023-05-10T02:54:21.915Z,962.77
2023-05-10T02:55:21.824Z,962.78
2023-05-10T02:56:21.781Z,962.75
2023-05-10T02:57:21.923Z,962.80
2023-05-10T02:58:21.772Z,962.80
2023-05-10T02:59:21.827Z,962.80
2023-05-10T03:00:21.760Z,962.83
2023-05-10T03:01:21.725Z,962.82
2023-05-10T03:02:21.999Z,962.86
2023-05-10T03:03:21.690Z,962.86
2023-05-10T03:04:21.841Z,962.83
2023-05-10T03:05:21.779Z,962.87
2023-05-10T03:06:21.651Z,962.89
2023-05-10T03:07:21.777Z,962.90
2023-05-10T03:08:21.639Z,962.90
2023-05-10T03:09:21.805Z,962.90
2023-05-10T03:10:21.612Z,962.89
2023-05-10T03:11:21.541Z,962.85
2023-05-10T03:12:21.740Z,962.90
2023-05-10T03:13:21.582Z,962.91
2023-05-10T03:14:21.687Z,962.90
2023-05-10T03:15:21.500Z,962.91
2023-05-10T03:16:21.652Z,962.90
2023-05-10T03:17:21.468Z,962.89
2023-05-10T03:18:21.996Z,962.89
2023-05-10T03:19:21.443Z,962.89
2023-05-10T03:20:21.651Z,962.90
2023-05-10T03:21:21.424Z,962.88
2023-05-10T03:22:21.507Z,962.93
2023-05-10T03:23:21.389Z,962.97
2023-05-10T03:24:21.530Z,962.94
2023-05-10T03:25:21.397Z,962.96
2023-05-10T03:26:21.531Z,962.96
2023-05-10T03:27:21.335Z,962.95
2023-05-10T03:28:23.054Z,962.98
2023-05-10T03:29:21.322Z,962.99
2023-05-10T03:30:21.586Z,962.98
2023-05-10T03:31:21.342Z,963.01
2023-05-10T03:32:21.525Z,963.03
2023-05-10T03:33:21.282Z,963.05
2023-05-10T03:34:21.372Z,963.00
2023-05-10T03:35:21.270Z,963.01
2023-05-10T03:36:21.318Z,963.03
2023-05-10T03:37:21.235Z,963.06
2023-05-10T03:38:21.285Z,963.04
2023-05-10T03:39:21.207Z,963.07
2023-05-10T03:40:21.321Z,963.08
2023-05-10T03:41:21.273Z,963.10
2023-05-10T03:42:21.189Z,963.06
2023-05-10T03:43:21.359Z,963.08
2023-05-10T03:44:21.127Z,963.08
2023-05-10T03:45:21.255Z,963.07
2023-05-10T03:46:21.248Z,963.08
2023-05-10T03:47:21.100Z,963.06
2023-05-10T03:48:21.307Z,963.05
2023-05-10T03:49:21.074Z,963.06
2023-05-10T03:50:21.285Z,963.07
2023-05-10T03:51:21.059Z,963.08
2023-05-10T03:52:21.189Z,963.08
2023-05-10T03:53:21.063Z,963.10
2023-05-10T03:54:21.096Z,963.10
2023-05-10T03:55:21.013Z,963.09
2023-05-10T03:56:21.229Z,963.09
2023-05-10T03:57:21.014Z,963.10
2023-05-10T03:58:21.048Z,963.11
2023-05-10T03:59:20.957Z,963.11
2023-05-10T04:00:21.086Z,963.11
2023-05-10T04:01:20.933Z,963.10
2023-05-10T04:02:21.150Z,963.13
2023-05-10T04:03:21.156Z,963.09
2023-05-10T04:04:21.243Z,963.11
2023-05-10T04:05:20.895Z,963.06
2023-05-10T04:06:21.163Z,963.09
2023-05-10T04:07:20.899Z,963.11
2023-05-10T04:08:21.021Z,963.09
2023-05-10T04:09:20.867Z,963.10
2023-05-10T04:10:20.940Z,963.08
2023-05-10T04:11:20.821Z,963.10
2023-05-10T04:12:20.833Z,963.09
2023-05-10T04:13:20.915Z,963.09
2023-05-10T04:14:20.963Z,963.06
2023-05-10T04:15:20.779Z,963.06
2023-05-10T04:16:21.008Z,963.07
2023-05-10T04:17:21.020Z,963.07
2023-05-10T04:18:20.751Z,963.07
2023-05-10T04:19:21.402Z,963.09
2023-05-10T04:20:20.769Z,963.10
2023-05-10T04:21:20.693Z,963.10
2023-05-10T04:22:20.787Z,963.11
2023-05-10T04:23:20.660Z,963.15
2023-05-10T04:24:20.708Z,963.14
2023-05-10T04:25:20.682Z,963.11
2023-05-10T04:26:20.704Z,963.14
2023-05-10T04:27:20.610Z,963.15
2023-05-10T04:28:20.645Z,963.16
2023-05-10T04:29:20.593Z,963.19
2023-05-10T04:30:20.938Z,963.16
2023-05-10T04:31:20.724Z,963.18
2023-05-10T04:32:20.662Z,963.18
2023-05-10T04:33:20.552Z,963.21
2023-05-10T04:34:20.705Z,963.20
2023-05-10T04:35:20.500Z,963.21
2023-05-10T04:36:20.634Z,963.17
2023-05-10T04:37:20.471Z,963.24
2023-05-10T04:38:20.485Z,963.19
2023-05-10T04:39:20.456Z,963.23
2023-05-10T04:40:20.652Z,963.24
2023-05-10T04:41:20.436Z,963.22
2023-05-10T04:42:20.564Z,963.24
2023-05-10T04:43:20.397Z,963.20
2023-05-10T04:44:20.536Z,963.22
2023-05-10T04:45:20.762Z,963.21
2023-05-10T04:46:20.513Z,963.26
2023-05-10T04:47:20.371Z,963.24
2023-05-10T04:48:20.513Z,963.25
2023-05-10T04:49:20.332Z,963.26
2023-05-10T04:50:20.358Z,963.29
2023-05-10T04:51:20.299Z,963.31
2023-05-10T04:52:20.524Z,963.28
2023-05-10T04:53:20.533Z,963.28
2023-05-10T04:54:20.226Z,963.28
2023-05-10T04:55:20.411Z,963.31
2023-05-10T04:56:20.313Z,963.30
2023-05-10T04:57:20.332Z,963.29
2023-05-10T04:58:20.544Z,963.37
2023-05-10T04:59:20.184Z,963.35
2023-05-10T05:00:20.335Z,963.37
2023-05-10T05:01:20.282Z,963.39
2023-05-10T05:02:20.307Z,963.38
2023-05-10T05:03:20.227Z,963.36
2023-05-10T05:04:20.238Z,963.40
2023-05-10T05:05:20.121Z,963.35
2023-05-10T05:06:20.164Z,963.40
2023-05-10T05:07:20.080Z,963.41
2023-05-10T05:08:20.128Z,963.37
2023-05-10T05:09:20.049Z,963.37
2023-05-10T05:10:20.305Z,963.35
2023-05-10T05:11:20.031Z,963.39
2023-05-10T05:12:20.171Z,963.38
2023-05-10T05:13:20.752Z,963.37
2023-05-10T05:14:20.143Z,963.40
2023-05-10T05:15:19.988Z,963.41
2023-05-10T05:16:20.820Z,963.42
2023-05-10T05:17:19.971Z,963.41
2023-05-10T05:18:20.242Z,963.43
2023-05-10T05:19:19.954Z,963.46
2023-05-10T05:20:20.118Z,963.46
2023-05-10T05:21:19.954Z,963.44
2023-05-10T05:22:19.980Z,963.47
2023-05-10T05:23:19.894Z,963.46
2023-05-10T05:24:20.118Z,963.47
2023-05-10T05:25:19.893Z,963.49
2023-05-10T05:26:19.917Z,963.53
2023-05-10T05:27:19.866Z,963.48
2023-05-10T05:28:19.926Z,963.52
2023-05-10T05:29:20.002Z,963.52
2023-05-10T05:30:19.763Z,963.54
2023-05-10T05:31:20.033Z,963.52
2023-05-10T05:32:19.846Z,963.57
2023-05-10T05:33:19.965Z,963.58
2023-05-10T05:34:19.730Z,963.62
2023-05-10T05:35:19.842Z,963.62
2023-05-10T05:36:19.707Z,963.64
2023-05-10T05:37:19.800Z,963.67
2023-05-10T05:38:19.673Z,963.62
2023-05-10T05:39:19.813Z,963.67
2023-05-10T05:40:19.660Z,963.65
2023-05-10T05:41:19.706Z,963.73
2023-05-10T05:42:19.835Z,963.69
2023-05-10T05:43:19.827Z,963.72
2023-05-10T05:44:19.713Z,963.72
2023-05-10T05:45:20.086Z,963.72
2023-05-10T05:46:19.803Z,963.74
2023-05-10T05:47:19.937Z,963.77
2023-05-10T05:48:19.789Z,963.74
2023-05-10T05:49:19.721Z,963.76
2023-05-10T05:50:20.034Z,963.77
2023-05-10T05:51:19.582Z,963.77
2023-05-10T05:52:19.906Z,963.76
2023-05-10T05:53:19.746Z,963.74
2023-05-10T05:54:19.779Z,963.73
2023-05-10T05:55:19.784Z,963.71
2023-05-10T05:56:19.828Z,963.73
2023-05-10T05:57:19.661Z,963.75
2023-05-10T05:58:19.420Z,963.78
2023-05-10T05:59:19.544Z,963.73
2023-05-10T06:00:19.418Z,963.74
2023-05-10T06:01:19.585Z,963.75
2023-05-10T06:02:19.447Z,963.73
2023-05-10T06:03:19.572Z,963.77
2023-05-10T06:04:19.474Z,963.74
2023-05-10T06:05:19.494Z,963.76
2023-05-10T06:06:19.324Z,963.73
2023-05-10T06:07:19.712Z,963.72
2023-05-10T06:08:19.277Z,963.73
2023-05-10T06:09:19.426Z,963.72
2023-05-10T06:10:19.410Z,963.75
2023-05-10T06:11:19.277Z,963.79
2023-05-10T06:12:19.486Z,963.74
2023-05-10T06:13:19.258Z,963.77
2023-05-10T06:14:19.426Z,963.73
2023-05-10T06:15:19.446Z,963.75
2023-05-10T06:16:19.190Z,963.75
2023-05-10T06:17:19.293Z,963.79
2023-05-10T06:18:19.137Z,963.82
2023-05-10T06:19:19.717Z,963.87
2023-05-10T06:20:19.190Z,963.85
2023-05-10T06:21:19.339Z,963.85
2023-05-10T06:22:19.294Z,963.84
2023-05-10T06:23:19.578Z,963.84
2023-05-10T06:24:19.126Z,963.88
2023-05-10T06:25:20.058Z,963.93
2023-05-10T06:26:19.270Z,963.90
2023-05-10T06:27:19.329Z,963.92
2023-05-10T06:28:19.043Z,963.92
2023-05-10T06:29:19.255Z,963.95
2023-05-10T06:30:19.012Z,963.98
2023-05-10T06:31:19.218Z,963.96
2023-05-10T06:32:18.967Z,963.97
2023-05-10T06:33:19.133Z,963.97
2023-05-10T06:34:19.011Z,963.98
2023-05-10T06:35:19.313Z,964.00
2023-05-10T06:36:19.049Z,964.02
2023-05-10T06:37:19.140Z,964.04
2023-05-10T06:38:18.993Z,964.03
2023-05-10T06:39:19.146Z,964.04
2023-05-10T06:40:18.944Z,964.09
2023-05-10T06:41:19.192Z,964.06
2023-05-10T06:42:18.955Z,964.06
2023-05-10T06:43:19.178Z,964.06
2023-05-10T06:44:18.873Z,964.03
2023-05-10T06:45:19.234Z,964.07
2023-05-10T06:46:18.981Z,964.08
2023-05-10T06:47:25.290Z,964.08
2023-05-10T06:48:19.080Z,964.09
2023-05-10T06:49:18.806Z,964.10
2023-05-10T06:50:18.797Z,964.11
2023-05-10T06:51:18.851Z,964.14
2023-05-10T06:52:18.782Z,964.12
2023-05-10T06:53:18.791Z,964.12
2023-05-10T06:54:18.808Z,964.11
2023-05-10T06:55:18.992Z,964.15
2023-05-10T06:56:18.733Z,964.18
2023-05-10T06:57:30.430Z,964.18
2023-05-10T06:58:18.663Z,964.14
2023-05-10T06:59:18.872Z,964.13
2023-05-10T07:00:19.066Z,964.11
2023-05-10T07:01:19.165Z,964.14
2023-05-10T07:02:18.700Z,964.13
2023-05-10T07:03:18.903Z,964.10
2023-05-10T07:04:19.058Z,964.09
2023-05-10T07:05:19.414Z,964.14
2023-05-10T07:06:32.198Z,964.10
2023-05-10T07:07:19.150Z,964.08
2023-05-10T07:08:19.320Z,964.09
2023-05-10T07:09:18.508Z,964.09
2023-05-10T07:10:19.063Z,964.10
2023-05-10T07:11:18.795Z,964.13
2023-05-10T07:12:19.205Z,964.16
2023-05-10T07:13:18.569Z,964.15
2023-05-10T07:14:19.047Z,964.17
2023-05-10T07:15:19.249Z,964.20
2023-05-10T07:16:18.933Z,964.16
2023-05-10T07:17:18.985Z,964.20
2023-05-10T07:18:19.152Z,964.19
2023-05-10T07:19:18.762Z,964.24
2023-05-10T07:20:19.277Z,964.20
2023-05-10T07:21:18.836Z,964.21
2023-05-10T07:22:18.698Z,964.21
2023-05-10T07:23:18.723Z,964.25
2023-05-10T07:24:18.571Z,964.23
2023-05-10T07:25:18.446Z,964.22
2023-05-10T07:26:18.505Z,964.23
2023-05-10T07:27:18.489Z,964.20
2023-05-10T07:28:18.451Z,964.20
2023-05-10T07:29:18.409Z,964.20
2023-05-10T07:30:18.309Z,964.24
2023-05-10T07:31:18.441Z,964.24
2023-05-10T07:32:18.538Z,964.22
2023-05-10T07:33:18.775Z,964.26
2023-05-10T07:34:18.370Z,964.25
2023-05-10T07:35:18.527Z,964.28
2023-05-10T07:36:18.296Z,964.29
2023-05-10T07:37:18.412Z,964.29
2023-05-10T07:38:18.528Z,964.27
2023-05-10T07:39:26.659Z,964.27
2023-05-10T07:40:18.515Z,964.25
2023-05-10T07:41:18.497Z,964.27
2023-05-10T07:42:18.413Z,964.29
2023-05-10T07:43:18.386Z,964.26
2023-05-10T07:44:18.628Z,964.27
2023-05-10T07:45:18.904Z,964.28
2023-05-10T07:46:18.871Z,964.23
2023-05-10T07:47:18.866Z,964.22
2023-05-10T07:48:18.464Z,964.22
2023-05-10T07:49:18.585Z,964.22
2023-05-10T07:50:18.508Z,964.24
2023-05-10T07:51:18.624Z,964.23
2023-05-10T07:52:20.634Z,964.24
2023-05-10T07:53:18.752Z,964.24
2023-05-10T07:54:19.182Z,964.22
2023-05-10T07:55:18.385Z,964.26
2023-05-10T07:56:18.943Z,964.28
2023-05-10T07:57:19.091Z,964.25
2023-05-10T07:58:18.840Z,964.25
2023-05-10T07:59:18.572Z,964.28
2023-05-10T08:00:18.716Z,964.25
2023-05-10T08:01:19.191Z,964.22
2023-05-10T08:02:18.895Z,964.24
2023-05-10T08:03:18.522Z,964.28
2023-05-10T08:04:18.285Z,964.24
2023-05-10T08:05:19.762Z,964.21
2023-05-10T08:06:18.670Z,964.25
2023-05-10T08:07:18.324Z,964.26
2023-05-10T08:08:18.666Z,964.27
2023-05-10T08:09:18.478Z,964.30
2023-05-10T08:10:18.565Z,964.30
2023-05-10T08:11:18.296Z,964.29
2023-05-10T08:12:18.313Z,964.29
2023-05-10T08:13:18.463Z,964.31
2023-05-10T08:14:18.251Z,964.28
2023-05-10T08:15:18.690Z,964.28
2023-05-10T08:16:18.791Z,964.27
2023-05-10T08:17:20.055Z,964.31
2023-05-10T08:18:18.598Z,964.29
2023-05-10T08:19:18.028Z,964.31
2023-05-10T08:20:18.717Z,964.32
2023-05-10T08:21:18.259Z,964.30
2023-05-10T08:22:18.869Z,964.28
2023-05-10T08:23:18.072Z,964.26
2023-05-10T08:24:18.099Z,964.33
2023-05-10T08:25:17.803Z,964.27
2023-05-10T08:26:17.977Z,964.30
2023-05-10T08:27:17.893Z,964.31
2023-05-10T08:28:17.999Z,964.32
2023-05-10T08:29:17.692Z,964.35
2023-05-10T08:30:17.671Z,964.30
2023-05-10T08:31:17.550Z,964.34
2023-05-10T08:32:17.857Z,964.33
2023-05-10T08:33:17.895Z,964.30
2023-05-10T08:34:17.697Z,964.28
2023-05-10T08:35:18.277Z,964.28
2023-05-10T08:36:17.700Z,964.32
2023-05-10T08:37:17.607Z,964.34
2023-05-10T08:38:18.065Z,964.31
2023-05-10T08:39:29.417Z,964.35
2023-05-10T08:40:17.667Z,964.35
2023-05-10T08:41:17.477Z,964.37
2023-05-10T08:42:17.600Z,964.40
2023-05-10T08:43:18.439Z,964.40
2023-05-10T08:44:17.443Z,964.42
2023-05-10T08:45:18.014Z,964.40
2023-05-10T08:46:17.576Z,964.37
2023-05-10T08:47:17.432Z,964.40
2023-05-10T08:48:17.313Z,964.46
2023-05-10T08:49:17.376Z,964.38
2023-05-10T08:50:17.270Z,964.41
2023-05-10T08:51:17.367Z,964.45
2023-05-10T08:52:17.202Z,964.45
2023-05-10T08:53:17.426Z,964.44
2023-05-10T08:54:17.378Z,964.48
2023-05-10T08:55:17.716Z,964.48
2023-05-10T08:56:17.155Z,964.48
2023-05-10T08:57:17.390Z,964.49
2023-05-10T08:58:17.140Z,964.48
2023-05-10T08:59:17.260Z,964.48
2023-05-10T09:00:17.763Z,964.48
2023-05-10T09:01:18.718Z,964.53
2023-05-10T09:02:18.792Z,964.49
2023-05-10T09:03:17.619Z,964.51
2023-05-10T09:04:17.974Z,964.54
2023-05-10T09:05:17.690Z,964.59
2023-05-10T09:06:17.082Z,964.54
2023-05-10T09:07:17.167Z,964.57
2023-05-10T09:08:17.174Z,964.54
2023-05-10T09:09:17.275Z,964.57
2023-05-10T09:10:16.992Z,964.52
2023-05-10T09:11:17.234Z,964.60
2023-05-10T09:12:16.947Z,964.60
2023-05-10T09:13:17.107Z,964.60
2023-05-10T09:14:16.925Z,964.62
2023-05-10T09:15:17.279Z,964.62
2023-05-10T09:16:21.626Z,964.62
2023-05-10T09:17:17.001Z,964.63
2023-05-10T09:18:17.131Z,964.61
2023-05-10T09:19:16.930Z,964.62
2023-05-10T09:20:16.925Z,964.67
2023-05-10T09:21:17.077Z,964.64
2023-05-10T09:22:17.096Z,964.65
2023-05-10T09:23:16.977Z,964.66
2023-05-10T09:24:16.908Z,964.61
2023-05-10T09:25:17.093Z,964.64
2023-05-10T09:26:17.045Z,964.61
2023-05-10T09:27:16.779Z,964.58
2023-05-10T09:28:16.906Z,964.57
2023-05-10T09:29:17.865Z,964.57
2023-05-10T09:30:16.824Z,964.63
2023-05-10T09:31:16.886Z,964.62
2023-05-10T09:32:16.688Z,964.64
2023-05-10T09:33:16.907Z,964.62
2023-05-10T09:34:16.740Z,964.64
2023-05-10T09:35:17.056Z,964.64
2023-05-10T09:36:16.700Z,964.64
2023-05-10T09:37:16.794Z,964.65
2023-05-10T09:38:16.710Z,964.63
2023-05-10T09:39:16.935Z,964.65
2023-05-10T09:40:16.638Z,964.66
2023-05-10T09:41:16.695Z,964.68
2023-05-10T09:42:16.560Z,964.68
2023-05-10T09:43:16.921Z,964.69
2023-05-10T09:44:16.647Z,964.68
2023-05-10T09:45:16.939Z,964.70
2023-05-10T09:46:16.615Z,964.65
2023-05-10T09:47:16.616Z,964.67
2023-05-10T09:48:16.512Z,964.70
2023-05-10T09:49:16.633Z,964.71
2023-05-10T09:50:16.473Z,964.70
2023-05-10T09:51:16.616Z,964.72
2023-05-10T09:52:16.455Z,964.70
2023-05-10T09:53:17.052Z,964.75
2023-05-10T09:54:16.814Z,964.73
2023-05-10T09:55:16.843Z,964.78
2023-05-10T09:56:16.528Z,964.79
2023-05-10T09:57:17.086Z,964.80
2023-05-10T09:58:16.472Z,964.78
2023-05-10T09:59:16.881Z,964.84
2023-05-10T10:00:16.732Z,964.81
2023-05-10T10:01:16.493Z,964.81
2023-05-10T10:02:16.448Z,964.82
2023-05-10T10:03:16.365Z,964.83
2023-05-10T10:04:16.563Z,964.87
2023-05-10T10:05:16.561Z,964.87
2023-05-10T10:06:28.979Z,964.91
2023-05-10T10:07:16.250Z,964.87
2023-05-10T10:08:16.554Z,964.86
2023-05-10T10:09:16.230Z,964.82
2023-05-10T10:10:16.501Z,964.86
2023-05-10T10:11:16.201Z,964.84
2023-05-10T10:12:16.557Z,964.85
2023-05-10T10:13:16.238Z,964.84
2023-05-10T10:14:16.323Z,964.80
2023-05-10T10:15:16.922Z,964.82
2023-05-10T10:16:16.163Z,964.81
2023-05-10T10:17:16.369Z,964.77
2023-05-10T10:18:16.190Z,964.74
2023-05-10T10:19:16.315Z,964.71
2023-05-10T10:20:16.337Z,964.70
2023-05-10T10:21:16.254Z,964.73
2023-05-10T10:22:16.127Z,964.74
2023-05-10T10:23:17.672Z,964.74
2023-05-10T10:24:16.040Z,964.76
2023-05-10T10:25:16.960Z,964.78
2023-05-10T10:26:16.024Z,964.75
2023-05-10T10:27:16.145Z,964.81
2023-05-10T10:28:15.978Z,964.81
2023-05-10T10:29:16.096Z,964.85
2023-05-10T10:30:16.053Z,964.78
2023-05-10T10:31:16.151Z,964.75
2023-05-10T10:32:15.964Z,964.79
2023-05-10T10:33:27.213Z,964.74
2023-05-10T10:34:15.932Z,964.75
2023-05-10T10:35:16.169Z,964.73
2023-05-10T10:36:15.897Z,964.77
2023-05-10T10:37:16.073Z,964.75
2023-05-10T10:38:15.876Z,964.75
2023-05-10T10:39:16.164Z,964.73
2023-05-10T10:40:15.893Z,964.75
2023-05-10T10:41:16.078Z,964.71
2023-05-10T10:42:15.808Z,964.72
2023-05-10T10:43:15.890Z,964.71
2023-05-10T10:44:15.815Z,964.70
2023-05-10T10:45:16.147Z,964.71
2023-05-10T10:46:15.835Z,964.73
2023-05-10T10:47:15.924Z,964.75
2023-05-10T10:48:15.784Z,964.73
2023-05-10T10:49:15.960Z,964.76
2023-05-10T10:50:15.810Z,964.76
2023-05-10T10:51:15.850Z,964.73
2023-05-10T10:52:15.659Z,964.76
2023-05-10T10:53:15.899Z,964.74
2023-05-10T10:54:15.695Z,964.74
2023-05-10T10:55:15.993Z,964.77
2023-05-10T10:56:15.903Z,964.74
2023-05-10T10:57:15.584Z,964.73
2023-05-10T10:58:15.855Z,964.73
2023-05-10T10:59:15.567Z,964.72
2023-05-10T11:00:15.807Z,964.68
2023-05-10T11:01:15.688Z,964.68
2023-05-10T11:02:15.734Z,964.66
2023-05-10T11:03:15.710Z,964.64
2023-05-10T11:04:15.677Z,964.61
2023-05-10T11:05:15.781Z,964.59
2023-05-10T11:06:15.786Z,964.63
2023-05-10T11:07:15.628Z,964.69
2023-05-10T11:08:15.683Z,964.71
2023-05-10T11:09:15.573Z,964.78
2023-05-10T11:10:15.767Z,964.83
2023-05-10T11:11:15.453Z,964.86
2023-05-10T11:12:16.785Z,964.90
2023-05-10T11:13:15.402Z,964.89
2023-05-10T11:14:15.696Z,964.95
2023-05-10T11:15:15.795Z,964.92
2023-05-10T11:16:15.832Z,964.92
2023-05-10T11:17:15.411Z,964.96
2023-05-10T11:18:15.611Z,964.95
2023-05-10T11:19:15.392Z,964.99
2023-05-10T11:20:16.014Z,964.99
2023-05-10T11:21:15.313Z,964.97
2023-05-10T11:22:15.574Z,964.99
2023-05-10T11:23:15.294Z,965.00
2023-05-10T11:24:15.503Z,965.05
2023-05-10T11:25:15.874Z,965.04
2023-05-10T11:26:15.499Z,965.04
2023-05-10T11:27:15.250Z,965.08
2023-05-10T11:28:15.400Z,965.07
2023-05-10T11:29:15.189Z,965.11
2023-05-10T11:30:15.937Z,965.06
2023-05-10T11:31:15.343Z,965.08
2023-05-10T11:32:15.789Z,965.05
2023-05-10T11:33:15.232Z,965.07
2023-05-10T11:34:15.454Z,965.11
2023-05-10T11:35:15.123Z,965.13
2023-05-10T11:36:15.368Z,965.04
2023-05-10T11:37:15.760Z,965.17
2023-05-10T11:38:15.138Z,965.17
2023-05-10T11:39:15.670Z,965.19
2023-05-10T11:40:15.340Z,965.22
2023-05-10T11:41:15.201Z,965.21
2023-05-10T11:42:15.270Z,965.22
2023-05-10T11:43:15.101Z,965.27
2023-05-10T11:44:15.235Z,965.24
2023-05-10T11:45:15.026Z,965.26
2023-05-10T11:46:15.311Z,965.28
2023-05-10T11:47:14.963Z,965.27
2023-05-10T11:48:15.514Z,965.26
2023-05-10T11:49:14.997Z,965.30
2023-05-10T11:50:15.661Z,965.32
2023-05-10T11:51:15.011Z,965.29
2023-05-10T11:52:15.058Z,965.32
2023-05-10T11:53:14.930Z,965.35
2023-05-10T11:54:15.154Z,965.28
2023-05-10T11:55:14.931Z,965.28
2023-05-10T11:56:15.297Z,965.28
2023-05-10T11:57:14.858Z,965.26
2023-05-10T11:58:15.177Z,965.23
2023-05-10T11:59:14.851Z,965.27
2023-05-10T12:00:15.371Z,965.25
2023-05-10T12:01:14.807Z,965.27
2023-05-10T12:02:15.142Z,965.25
2023-05-10T12:03:15.082Z,965.29
2023-05-10T12:04:14.986Z,965.25
2023-05-10T12:05:15.105Z,965.33
2023-05-10T12:06:14.749Z,965.31
2023-05-10T12:07:15.038Z,965.36
2023-05-10T12:08:14.758Z,965.34
2023-05-10T12:09:15.161Z,965.37
2023-05-10T12:10:14.754Z,965.38
2023-05-10T12:11:14.894Z,965.40
2023-05-10T12:12:14.956Z,965.42
2023-05-10T12:13:14.802Z,965.40
2023-05-10T12:14:14.752Z,965.37
2023-05-10T12:15:14.875Z,965.39
2023-05-10T12:16:14.639Z,965.36
2023-05-10T12:17:14.796Z,965.38
2023-05-10T12:18:14.789Z,965.36
2023-05-10T12:19:14.569Z,965.37
2023-05-10T12:20:15.032Z,965.34
2023-05-10T12:21:14.551Z,965.34
2023-05-10T12:22:14.822Z,965.36
2023-05-10T12:23:14.786Z,965.34
2023-05-10T12:24:14.534Z,965.35
2023-05-10T12:25:15.702Z,965.34
2023-05-10T12:26:15.417Z,965.40
2023-05-10T12:27:15.946Z,965.39
2023-05-10T12:28:15.587Z,965.37